Time;durP1;ratioP1;P1;durP2;ratioP2;P2;SDS_P1;SDS_P2;PMS_P1;PMS_P2;Temp;Humidity;BMP_temperature;BMP_pressure;BME280_temperature;BME280_humidity;BME280_pressure;Samples;Min_cycle;Max_cycle;Signal;HPM_P1;HPM_P2
2023/06/30 00:00:54;;;;;;;29.58;26.45;;;17.30;1.00;;;;;;5032422;28;20553;-57
2023/06/30 00:03:19;;;;;;;29.45;26.63;;;17.50;1.00;;;;;;5032873;28;20053;-57
2023/06/30 00:05:47;;;;;;;28.95;26.15;;;17.30;1.00;;;;;;5033561;28;20065;-56
2023/06/30 00:08:12;;;;;;;28.55;25.60;;;17.30;1.00;;;;;;5033130;28;20049;-57
2023/06/30 00:10:38;;;;;;;28.38;25.67;;;17.40;99.90;;;;;;5019852;28;20507;-56
2023/06/30 00:13:04;;;;;;;28.85;25.92;;;17.40;99.90;;;;;;5030366;28;20041;-57
2023/06/30 00:15:29;;;;;;;29.42;26.35;;;17.40;99.90;;;;;;5047685;28;20077;-56
2023/06/30 00:17:55;;;;;;;28.00;25.35;;;17.60;99.90;;;;;;5032581;28;20530;-56
2023/06/30 00:20:21;;;;;;;29.30;26.25;;;17.70;99.90;;;;;;5032499;28;20483;-57
2023/06/30 00:22:47;;;;;;;28.95;26.20;;;17.30;99.90;;;;;;5032322;28;20045;-56
2023/06/30 00:25:12;;;;;;;30.45;27.48;;;17.60;99.90;;;;;;5032071;28;20033;-57
2023/06/30 00:27:38;;;;;;;30.55;27.35;;;17.40;99.90;;;;;;5032128;28;20091;-57
2023/06/30 00:30:04;;;;;;;29.30;26.50;;;17.30;99.90;;;;;;5032258;28;20072;-57
2023/06/30 00:32:32;;;;;;;27.63;25.02;;;17.40;1.00;;;;;;5047276;28;20463;-57
2023/06/30 00:34:58;;;;;;;29.58;26.77;;;17.20;1.00;;;;;;5032334;28;20042;-57
2023/06/30 00:37:24;;;;;;;28.92;26.27;;;17.50;1.00;;;;;;5032311;28;20442;-57
2023/06/30 00:39:50;;;;;;;28.20;25.60;;;17.40;1.00;;;;;;5032204;28;20033;-57
2023/06/30 00:42:16;;;;;;;29.20;26.52;;;17.30;1.00;;;;;;5031860;28;20063;-57
2023/06/30 00:44:41;;;;;;;33.38;28.67;;;17.50;1.00;;;;;;5031943;28;20118;-57
2023/06/30 00:47:07;;;;;;;30.40;27.25;;;17.40;1.00;;;;;;5031777;28;20037;-57
2023/06/30 00:49:33;;;;;;;29.98;26.83;;;17.20;1.00;;;;;;5032069;28;20073;-57
2023/06/30 00:51:59;;;;;;;29.20;26.40;;;17.60;1.00;;;;;;5031660;28;20449;-57
2023/06/30 00:54:25;;;;;;;30.13;27.02;;;17.30;1.00;;;;;;5031738;28;20124;-57
2023/06/30 00:56:51;;;;;;;31.02;27.75;;;17.30;1.00;;;;;;5031598;28;20125;-57
2023/06/30 00:59:16;;;;;;;30.73;27.83;;;17.20;1.00;;;;;;5031378;28;20034;-57
2023/06/30 01:01:58;;;;;;;30.35;27.50;;;17.40;36.00;;;;;;5031640;28;20045;-57
2023/06/30 01:04:46;;;;;;;29.02;26.45;;;17.40;99.90;;;;;;5031797;28;20076;-57
2023/06/30 01:07:29;;;;;;;30.75;27.83;;;17.20;99.90;;;;;;5031466;28;20041;-57
2023/06/30 01:10:00;;;;;;;29.45;26.73;;;17.20;1.00;;;;;;5026875;28;20049;-56
2023/06/30 01:12:26;;;;;;;30.88;28.00;;;17.20;99.90;;;;;;5010481;28;20046;-57
2023/06/30 01:14:53;;;;;;;30.23;27.27;;;17.50;99.90;;;;;;5011921;28;20045;-57
2023/06/30 01:17:20;;;;;;;29.48;26.55;;;17.30;99.90;;;;;;5011792;28;20084;-57
2023/06/30 01:19:49;;;;;;;31.27;28.05;;;17.50;99.90;;;;;;5011638;28;20604;-57
2023/06/30 01:22:51;;;;;;;31.27;27.83;;;17.30;1.00;;;;;;5011588;28;20052;-56
2023/06/30 01:25:20;;;;;;;30.17;27.25;;;17.50;1.00;;;;;;5033896;28;20128;-57
2023/06/30 01:27:46;;;;;;;30.83;27.85;;;17.30;54.40;;;;;;5036224;28;20083;-57
2023/06/30 01:30:13;;;;;;;30.75;27.95;;;17.30;99.90;;;;;;5033467;28;20037;-56
2023/06/30 01:32:40;;;;;;;30.60;27.58;;;17.20;99.90;;;;;;5050954;28;20056;-57
2023/06/30 01:35:06;;;;;;;31.20;28.27;;;17.30;99.90;;;;;;5051239;28;20036;-56
2023/06/30 01:37:31;;;;;;;31.58;28.50;;;17.20;1.00;;;;;;5049442;28;20343;-57
2023/06/30 01:39:57;;;;;;;31.17;28.17;;;17.40;99.90;;;;;;5049635;28;20564;-57
2023/06/30 01:42:24;;;;;;;31.02;27.90;;;17.50;99.90;;;;;;5051226;28;20383;-56
2023/06/30 01:44:50;;;;;;;30.08;27.15;;;17.50;99.90;;;;;;5050732;28;20061;-57
2023/06/30 01:47:16;;;;;;;30.88;27.85;;;17.30;99.90;;;;;;5030701;28;20443;-57
2023/06/30 01:49:43;;;;;;;30.77;27.67;;;17.50;99.90;;;;;;5029584;28;20049;-57
2023/06/30 01:52:08;;;;;;;30.88;27.73;;;17.50;1.00;;;;;;5030674;28;20045;-57
2023/06/30 01:54:34;;;;;;;32.03;29.02;;;17.50;1.00;;;;;;5031074;28;20048;-57
2023/06/30 01:57:00;;;;;;;31.58;28.55;;;17.60;1.00;;;;;;5030983;28;20041;-57
2023/06/30 01:59:25;;;;;;;30.95;28.33;;;17.20;82.60;;;;;;5030827;28;20037;-57
2023/06/30 02:01:51;;;;;;;31.63;28.48;;;17.20;99.90;;;;;;5030974;28;20045;-57
2023/06/30 02:04:17;;;;;;;30.75;27.75;;;17.20;99.90;;;;;;5030723;28;20044;-57
2023/06/30 02:06:43;;;;;;;30.85;27.65;;;17.40;99.90;;;;;;5030495;28;20063;-57
2023/06/30 02:09:08;;;;;;;30.92;27.35;;;17.20;99.90;;;;;;5030561;28;20458;-57
2023/06/30 02:11:34;;;;;;;30.85;27.92;;;17.50;99.90;;;;;;5010988;28;20049;-56
2023/06/30 02:13:59;;;;;;;30.80;27.92;;;17.40;99.90;;;;;;5010591;28;20121;-56
2023/06/30 02:16:25;;;;;;;33.55;28.50;;;17.10;99.90;;;;;;5010426;28;20095;-57
2023/06/30 02:18:51;;;;;;;31.42;28.58;;;17.20;99.90;;;;;;5010567;28;20053;-57
2023/06/30 02:21:17;;;;;;;31.67;28.50;;;17.60;99.90;;;;;;5010739;28;20146;-57
2023/06/30 02:23:42;;;;;;;29.85;26.83;;;17.40;99.90;;;;;;5010300;28;20037;-56
2023/06/30 02:26:08;;;;;;;31.27;28.20;;;17.20;99.90;;;;;;5010482;28;20045;-57
2023/06/30 02:28:33;;;;;;;30.63;27.73;;;17.50;99.90;;;;;;5010462;28;20072;-57
2023/06/30 02:30:59;;;;;;;29.77;27.10;;;17.40;99.90;;;;;;5010409;28;20073;-56
2023/06/30 02:33:24;;;;;;;30.85;27.92;;;17.50;99.90;;;;;;5008689;28;20073;-57
2023/06/30 02:35:53;;;;;;;30.75;27.75;;;17.20;99.90;;;;;;5010389;28;20496;-57
2023/06/30 02:38:19;;;;;;;31.65;28.70;;;17.50;99.90;;;;;;5010171;28;20037;-57
2023/06/30 02:40:45;;;;;;;30.08;27.17;;;17.10;99.90;;;;;;5010120;28;20041;-57
2023/06/30 02:43:10;;;;;;;30.60;27.67;;;17.30;99.90;;;;;;5010137;28;20061;-57
2023/06/30 02:45:36;;;;;;;29.50;27.00;;;17.50;99.90;;;;;;5017185;28;20480;-57
2023/06/30 02:48:02;;;;;;;30.77;27.83;;;17.40;99.90;;;;;;5022564;28;20078;-57
2023/06/30 02:50:29;;;;;;;30.75;27.48;;;17.50;99.90;;;;;;5012531;28;20064;-57
2023/06/30 02:52:57;;;;;;;30.35;27.13;;;17.30;99.90;;;;;;5009956;28;20046;-57
2023/06/30 02:55:22;;;;;;;31.83;28.83;;;17.20;99.90;;;;;;5027340;28;20042;-57
2023/06/30 02:57:48;;;;;;;31.73;28.85;;;17.80;99.90;;;;;;5029755;28;20082;-57
2023/06/30 03:00:14;;;;;;;30.63;27.75;;;17.60;99.90;;;;;;5029765;28;20550;-57
2023/06/30 03:02:40;;;;;;;31.45;28.30;;;17.20;99.90;;;;;;5028429;28;20396;-57
2023/06/30 03:05:07;;;;;;;31.38;28.27;;;17.30;99.90;;;;;;5029504;28;20053;-56
2023/06/30 03:07:33;;;;;;;32.05;28.92;;;17.50;99.90;;;;;;5028849;28;20083;-57
2023/06/30 03:09:58;;;;;;;30.67;27.65;;;17.50;99.90;;;;;;5023461;28;20077;-56
2023/06/30 03:12:24;;;;;;;30.33;27.10;;;17.60;99.90;;;;;;5009748;28;20074;-57
2023/06/30 03:14:49;;;;;;;30.30;27.50;;;17.50;99.90;;;;;;5009991;28;20049;-57
2023/06/30 03:17:15;;;;;;;32.15;28.67;;;17.50;99.90;;;;;;5009883;28;20040;-56
2023/06/30 03:19:41;;;;;;;30.80;27.92;;;17.40;99.90;;;;;;5010065;28;20081;-57
2023/06/30 03:22:06;;;;;;;32.88;29.27;;;17.50;99.90;;;;;;5010400;28;20057;-57
2023/06/30 03:24:32;;;;;;;31.13;28.00;;;17.30;99.90;;;;;;5013487;28;20046;-57
2023/06/30 03:26:58;;;;;;;29.92;27.20;;;17.50;99.90;;;;;;5065621;28;20111;-57
2023/06/30 03:29:23;;;;;;;31.90;28.52;;;17.20;99.90;;;;;;5033563;28;20072;-57
2023/06/30 03:31:49;;;;;;;31.73;28.65;;;17.40;99.90;;;;;;5048508;28;20044;-57
2023/06/30 03:34:14;;;;;;;30.95;27.75;;;17.50;99.90;;;;;;5033457;28;20091;-57
2023/06/30 03:36:40;;;;;;;32.92;29.52;;;17.40;99.90;;;;;;5032991;28;20037;-57
2023/06/30 03:39:06;;;;;;;32.10;28.83;;;17.40;99.90;;;;;;5048531;28;20041;-57
2023/06/30 03:41:32;;;;;;;31.17;27.98;;;17.30;99.90;;;;;;5033059;28;20385;-57
2023/06/30 03:43:57;;;;;;;31.17;28.08;;;17.30;99.90;;;;;;5032988;28;20057;-57
2023/06/30 03:46:23;;;;;;;31.00;27.88;;;17.10;99.90;;;;;;5032857;28;20049;-57
2023/06/30 03:48:48;;;;;;;30.83;27.90;;;17.20;99.90;;;;;;5032986;28;20045;-58
2023/06/30 03:51:14;;;;;;;30.90;27.90;;;17.40;99.90;;;;;;5031359;28;20041;-57
2023/06/30 03:53:42;;;;;;;30.60;27.67;;;17.30;99.90;;;;;;5033015;28;20507;-57
2023/06/30 03:56:08;;;;;;;31.05;28.13;;;17.50;99.90;;;;;;5048109;28;20033;-57
2023/06/30 03:58:33;;;;;;;31.33;28.20;;;17.60;99.90;;;;;;5033059;28;20040;-57
2023/06/30 04:00:59;;;;;;;30.25;27.40;;;17.20;99.90;;;;;;5032616;28;20137;-57
2023/06/30 04:03:25;;;;;;;29.80;26.83;;;17.60;95.50;;;;;;5032981;28;20539;-57
2023/06/30 04:05:51;;;;;;;31.23;28.30;;;17.50;47.10;;;;;;5032668;28;20785;-56
2023/06/30 04:08:16;;;;;;;30.63;27.48;;;17.40;12.00;;;;;;5032769;28;20034;-57
2023/06/30 04:10:42;;;;;;;30.45;27.65;;;17.40;13.40;;;;;;5032223;28;20045;-57
2023/06/30 04:13:08;;;;;;;29.38;26.65;;;17.60;14.40;;;;;;5032488;28;20120;-57
2023/06/30 04:15:33;;;;;;;30.48;27.58;;;17.90;1.00;;;;;;5032335;28;20196;-57
2023/06/30 04:17:59;;;;;;;30.27;27.30;;;17.60;1.00;;;;;;5032550;28;20085;-57
2023/06/30 04:20:26;;;;;;;29.33;26.55;;;17.80;1.00;;;;;;5032203;28;20037;-57
2023/06/30 04:22:51;;;;;;;28.65;25.80;;;17.80;99.90;;;;;;5047722;28;20049;-57
2023/06/30 04:25:17;;;;;;;30.08;27.33;;;17.70;99.90;;;;;;5032065;28;20121;-57
2023/06/30 04:27:43;;;;;;;30.42;27.55;;;17.80;1.00;;;;;;5032551;28;20077;-57
2023/06/30 04:30:09;;;;;;;30.85;28.00;;;17.90;1.00;;;;;;5032555;28;20045;-57
2023/06/30 04:32:35;;;;;;;28.45;25.85;;;17.80;1.00;;;;;;5032512;28;20042;-57
2023/06/30 04:35:01;;;;;;;29.35;26.63;;;18.00;99.90;;;;;;5031911;28;20052;-57
2023/06/30 04:37:29;;;;;;;27.92;25.33;;;18.20;99.90;;;;;;5032237;28;20040;-57
2023/06/30 04:39:59;;;;;;;27.90;25.05;;;18.00;1.00;;;;;;5032340;28;20533;-57
2023/06/30 04:42:29;;;;;;;29.80;27.08;;;18.30;99.90;;;;;;5047131;28;20087;-57
2023/06/30 04:44:54;;;;;;;28.98;26.33;;;18.10;99.90;;;;;;5032105;28;20457;-57
2023/06/30 04:47:20;;;;;;;30.60;27.70;;;18.00;1.00;;;;;;5032220;28;20037;-57
2023/06/30 04:49:45;;;;;;;30.55;27.70;;;18.30;1.00;;;;;;5032313;28;20095;-57
2023/06/30 04:52:11;;;;;;;31.63;28.67;;;18.30;99.90;;;;;;5032089;28;20037;-57
2023/06/30 04:54:37;;;;;;;30.50;27.58;;;18.20;1.00;;;;;;5032297;28;20045;-57
2023/06/30 04:57:05;;;;;;;28.60;25.83;;;18.40;1.00;;;;;;5031738;28;20534;-57
2023/06/30 04:59:30;;;;;;;31.08;27.75;;;18.50;1.00;;;;;;5031821;28;20040;-57
2023/06/30 05:01:56;;;;;;;29.17;26.58;;;18.30;99.90;;;;;;5031603;28;20033;-57
2023/06/30 05:04:21;;;;;;;30.25;27.45;;;18.30;99.90;;;;;;5031920;28;20091;-57
2023/06/30 05:06:47;;;;;;;30.00;27.27;;;18.50;99.90;;;;;;5031488;28;20034;-57
2023/06/30 05:09:12;;;;;;;27.02;24.70;;;18.50;99.90;;;;;;5031554;28;20838;-57
2023/06/30 05:11:38;;;;;;;30.10;27.10;;;18.40;1.00;;;;;;5023794;28;20045;-58
2023/06/30 05:14:04;;;;;;;31.25;27.40;;;18.70;99.90;;;;;;5031304;28;20057;-57
2023/06/30 05:16:30;;;;;;;28.05;25.60;;;18.70;1.00;;;;;;5031250;28;20419;-57
2023/06/30 05:18:56;;;;;;;26.80;24.40;;;18.70;99.90;;;;;;5031637;28;20041;-57
2023/06/30 05:21:21;;;;;;;27.63;25.23;;;18.90;99.90;;;;;;5031275;28;20162;-57
2023/06/30 05:23:47;;;;;;;27.15;24.55;;;19.00;1.00;;;;;;5031052;28;20483;-57
2023/06/30 05:26:12;;;;;;;27.35;24.80;;;18.90;99.90;;;;;;5031223;28;20422;-57
2023/06/30 05:28:38;;;;;;;26.60;24.40;;;19.10;91.10;;;;;;5031167;28;20434;-57
2023/06/30 05:31:04;;;;;;;26.80;24.40;;;18.90;1.00;;;;;;5030995;28;20079;-57
2023/06/30 05:33:29;;;;;;;26.83;24.40;;;19.10;99.90;;;;;;5031248;28;20099;-57
2023/06/30 05:35:55;;;;;;;26.52;24.05;;;19.10;99.90;;;;;;5030970;28;20033;-57
2023/06/30 05:38:20;;;;;;;28.45;25.80;;;19.00;1.00;;;;;;5031260;28;20044;-57
2023/06/30 05:40:46;;;;;;;28.20;25.50;;;19.40;1.00;;;;;;5030900;28;20073;-57
2023/06/30 05:43:12;;;;;;;26.92;24.35;;;19.10;1.00;;;;;;5030907;28;20052;-57
2023/06/30 05:45:39;;;;;;;26.80;24.55;;;19.20;99.90;;;;;;5011837;28;20055;-57
2023/06/30 05:48:04;;;;;;;28.02;25.50;;;19.30;99.90;;;;;;5031004;28;20064;-57
2023/06/30 05:50:30;;;;;;;29.70;26.77;;;19.30;99.90;;;;;;5030769;28;20495;-58
2023/06/30 05:52:56;;;;;;;25.70;23.40;;;19.30;99.90;;;;;;5030656;28;20480;-57
2023/06/30 05:55:21;;;;;;;25.23;23.25;;;19.40;53.60;;;;;;5030678;28;20054;-57
2023/06/30 05:57:47;;;;;;;26.77;24.30;;;19.20;1.00;;;;;;5030538;28;20076;-57
2023/06/30 06:00:13;;;;;;;24.20;21.90;;;19.20;99.90;;;;;;5030593;28;20099;-57
2023/06/30 06:02:39;;;;;;;27.65;24.92;;;19.10;99.90;;;;;;5030504;28;20049;-57
2023/06/30 06:05:05;;;;;;;25.85;23.50;;;19.30;99.90;;;;;;5030707;28;20461;-57
2023/06/30 06:07:31;;;;;;;25.33;23.27;;;19.20;99.90;;;;;;5030413;28;20091;-57
2023/06/30 06:09:57;;;;;;;25.33;22.77;;;19.10;1.00;;;;;;5025113;28;20492;-57
2023/06/30 06:12:22;;;;;;;26.15;22.55;;;19.30;1.00;;;;;;5024661;28;20403;-58
2023/06/30 06:14:48;;;;;;;22.75;20.80;;;19.30;1.00;;;;;;5027892;28;20384;-58
2023/06/30 06:17:13;;;;;;;22.85;20.75;;;19.40;1.00;;;;;;5030440;28;20040;-58
2023/06/30 06:19:39;;;;;;;24.17;21.77;;;19.50;99.90;;;;;;5030169;28;20488;-57
2023/06/30 06:22:05;;;;;;;21.60;18.95;;;19.60;99.90;;;;;;5030123;28;20462;-58
2023/06/30 06:24:30;;;;;;;18.55;16.75;;;19.70;99.90;;;;;;5029679;28;20271;-58
2023/06/30 06:26:56;;;;;;;19.08;17.08;;;19.80;49.60;;;;;;5029672;28;20514;-58
2023/06/30 06:29:22;;;;;;;17.63;15.55;;;19.80;1.00;;;;;;5030197;28;20038;-58
2023/06/30 06:31:52;;;;;;;15.73;14.45;;;19.80;1.00;;;;;;5030430;28;20041;-58
2023/06/30 06:34:18;;;;;;;17.30;15.50;;;19.80;99.90;;;;;;5028702;28;20407;-58
2023/06/30 06:36:44;;;;;;;15.77;14.45;;;19.90;99.90;;;;;;5030142;28;20376;-57
2023/06/30 06:39:11;;;;;;;16.83;15.43;;;19.90;99.90;;;;;;5030077;28;20049;-58
2023/06/30 06:41:37;;;;;;;17.98;16.50;;;19.90;99.90;;;;;;5021593;28;20038;-58
2023/06/30 06:44:03;;;;;;;17.38;15.95;;;20.00;94.90;;;;;;5029489;28;20049;-58
2023/06/30 06:46:28;;;;;;;17.95;16.27;;;20.10;60.70;;;;;;5028132;28;20057;-58
2023/06/30 06:48:54;;;;;;;19.27;17.42;;;20.10;19.80;;;;;;5029630;28;20518;-58
2023/06/30 06:51:21;;;;;;;19.23;17.73;;;20.10;11.10;;;;;;5030067;28;20056;-58
2023/06/30 06:53:46;;;;;;;21.35;19.23;;;20.30;72.20;;;;;;5029617;28;20080;-58
2023/06/30 06:56:12;;;;;;;22.15;20.02;;;20.40;83.40;;;;;;5023149;28;20123;-58
2023/06/30 06:58:38;;;;;;;21.95;19.80;;;20.50;99.90;;;;;;5028529;28;20533;-58
2023/06/30 07:01:04;;;;;;;21.15;19.40;;;20.60;91.40;;;;;;5035142;28;20053;-58
2023/06/30 07:03:30;;;;;;;22.10;19.92;;;20.50;1.00;;;;;;5036541;28;20061;-58
2023/06/30 07:05:57;;;;;;;24.00;21.50;;;20.40;1.00;;;;;;5036264;28;20037;-58
2023/06/30 07:08:23;;;;;;;22.08;20.10;;;20.30;1.00;;;;;;5036423;28;20392;-58
2023/06/30 07:10:50;;;;;;;22.63;20.55;;;20.50;1.00;;;;;;5029914;28;20099;-58
2023/06/30 07:13:18;;;;;;;22.80;20.65;;;20.60;1.00;;;;;;5036350;28;20037;-58
2023/06/30 07:15:53;;;;;;;25.50;17.17;;;20.70;1.00;;;;;;5029767;28;20467;-58
2023/06/30 07:18:21;;;;;;;19.30;17.80;;;20.80;1.00;;;;;;5017044;28;20458;-58
2023/06/30 07:20:51;;;;;;;19.77;17.85;;;20.80;99.90;;;;;;5016320;28;20042;-58
2023/06/30 07:23:17;;;;;;;15.50;14.07;;;20.80;99.90;;;;;;5030896;28;20095;-58
2023/06/30 07:25:43;;;;;;;16.50;14.85;;;20.90;99.90;;;;;;5035958;28;20033;-58
2023/06/30 07:28:09;;;;;;;16.95;13.85;;;21.00;99.90;;;;;;5036101;28;20045;-58
2023/06/30 07:30:36;;;;;;;15.90;14.55;;;21.30;99.90;;;;;;5036441;28;20136;-58
2023/06/30 07:33:02;;;;;;;16.60;15.18;;;21.50;99.90;;;;;;5036027;28;20047;-58
2023/06/30 07:35:28;;;;;;;17.25;15.60;;;21.60;99.90;;;;;;5036061;28;20046;-58
2023/06/30 07:37:54;;;;;;;21.13;19.45;;;21.50;99.90;;;;;;5036059;28;20589;-58
2023/06/30 07:40:19;;;;;;;24.13;21.70;;;21.30;99.90;;;;;;5036166;28;20041;-59
2023/06/30 07:42:46;;;;;;;20.73;19.05;;;21.30;99.90;;;;;;5046080;28;20063;-58
2023/06/30 07:45:13;;;;;;;21.95;20.13;;;21.30;99.90;;;;;;5024051;28;20049;-58
2023/06/30 07:47:42;;;;;;;21.20;19.45;;;21.20;99.90;;;;;;5035254;28;20119;-58
2023/06/30 07:50:11;;;;;;;18.75;17.15;;;21.40;99.90;;;;;;5016364;28;20037;-59
2023/06/30 07:52:44;;;;;;;19.02;17.13;;;21.50;99.90;;;;;;5031586;28;20407;-58
2023/06/30 07:55:13;;;;;;;19.50;17.90;;;21.80;99.90;;;;;;5035895;28;20045;-58
2023/06/30 07:57:39;;;;;;;19.92;18.30;;;22.00;99.90;;;;;;5035939;28;20037;-58
2023/06/30 08:00:06;;;;;;;21.75;20.13;;;21.80;99.90;;;;;;5019993;28;20511;-58
2023/06/30 08:02:32;;;;;;;25.67;23.48;;;21.60;99.90;;;;;;5034789;28;20051;-59
2023/06/30 08:04:57;;;;;;;20.88;18.98;;;21.50;99.90;;;;;;5035847;28;20426;-58
2023/06/30 08:07:23;;;;;;;22.27;20.58;;;21.80;99.90;;;;;;5034006;28;20052;-58
2023/06/30 08:09:48;;;;;;;24.27;22.25;;;21.80;99.90;;;;;;5030301;28;20045;-58
2023/06/30 08:12:14;;;;;;;25.15;22.90;;;22.10;99.90;;;;;;5032371;28;20045;-58
2023/06/30 08:14:40;;;;;;;26.23;24.23;;;22.00;99.90;;;;;;5030613;28;20038;-59
2023/06/30 08:17:06;;;;;;;21.17;19.15;;;22.10;99.90;;;;;;5032265;28;20040;-59
2023/06/30 08:19:31;;;;;;;21.65;19.65;;;22.50;99.90;;;;;;5032610;28;20112;-58
2023/06/30 08:21:57;;;;;;;22.15;20.23;;;22.70;99.90;;;;;;5031408;28;20033;-59
2023/06/30 08:24:23;;;;;;;20.85;19.02;;;22.90;99.90;;;;;;5032125;28;20124;-59
2023/06/30 08:26:48;;;;;;;22.77;19.30;;;23.00;99.90;;;;;;5032239;28;20045;-59
2023/06/30 08:29:14;;;;;;;17.60;15.75;;;23.40;99.90;;;;;;5032654;28;20069;-58
2023/06/30 08:31:40;;;;;;;24.75;22.65;;;23.30;99.90;;;;;;5034535;28;20091;-58
2023/06/30 08:34:08;;;;;;;24.48;22.48;;;23.10;99.90;;;;;;5032364;28;20040;-59
2023/06/30 08:36:34;;;;;;;27.00;24.70;;;22.70;99.90;;;;;;5032121;28;20081;-58
2023/06/30 08:38:59;;;;;;;27.90;25.60;;;22.60;99.90;;;;;;5031765;28;21959;-58
2023/06/30 08:41:25;;;;;;;28.10;25.65;;;22.90;99.90;;;;;;5039604;28;20045;-58
2023/06/30 08:43:54;;;;;;;26.73;24.55;;;23.30;99.90;;;;;;5032043;28;20057;-59
2023/06/30 08:46:22;;;;;;;23.33;21.48;;;23.60;99.90;;;;;;5032033;28;20534;-58
2023/06/30 08:48:49;;;;;;;24.08;22.08;;;23.90;99.90;;;;;;5030653;28;20148;-58
2023/06/30 08:51:16;;;;;;;26.27;24.08;;;24.00;99.90;;;;;;5032000;28;20045;-59
2023/06/30 08:53:42;;;;;;;31.58;28.98;;;24.20;99.90;;;;;;5031631;28;20045;-58
2023/06/30 08:56:08;;;;;;;27.45;24.70;;;24.10;93.80;;;;;;5032156;28;20057;-58
2023/06/30 08:58:34;;;;;;;66.20;61.08;;;24.00;86.10;;;;;;5031782;28;20076;-58
2023/06/30 09:01:00;;;;;;;73.65;67.55;;;24.10;89.30;;;;;;5030762;28;20076;-58
2023/06/30 09:03:27;;;;;;;61.30;56.70;;;24.20;89.30;;;;;;5031654;28;20033;-58
2023/06/30 09:05:55;;;;;;;73.82;67.90;;;24.40;84.90;;;;;;5047188;28;20146;-59
2023/06/30 09:08:28;;;;;;;58.35;54.17;;;24.60;91.70;;;;;;5031388;28;20120;-59
2023/06/30 09:10:55;;;;;;;44.10;40.55;;;24.60;61.00;;;;;;5016966;28;20045;-58
2023/06/30 09:13:23;;;;;;;64.25;59.75;;;24.50;47.80;;;;;;5027192;28;20526;-59
2023/06/30 09:15:50;;;;;;;40.97;38.22;;;24.70;39.20;;;;;;5016302;28;20053;-59
2023/06/30 09:18:16;;;;;;;37.03;34.10;;;24.60;29.00;;;;;;5024715;28;20037;-59
2023/06/30 09:20:42;;;;;;;31.98;29.30;;;24.70;31.00;;;;;;5030966;28;20037;-58
2023/06/30 09:23:08;;;;;;;38.00;35.08;;;24.80;23.10;;;;;;5019741;28;20080;-60
2023/06/30 09:25:34;;;;;;;41.88;38.72;;;24.90;15.90;;;;;;5021110;28;20037;-60
2023/06/30 09:27:59;;;;;;;35.70;32.80;;;24.80;22.00;;;;;;5026366;28;20510;-58
2023/06/30 09:30:32;;;;;;;15.90;14.18;;;24.60;12.30;;;;;;5011492;28;20068;-58
2023/06/30 09:32:57;;;;;;;11.30;9.20;;;24.50;9.50;;;;;;5022549;28;20037;-59
2023/06/30 09:35:23;;;;;;;11.50;8.52;;;24.60;13.70;;;;;;5030886;28;20041;-58
2023/06/30 09:37:49;;;;;;;9.38;4.18;;;24.70;14.60;;;;;;5046129;28;20041;-59
2023/06/30 09:40:15;;;;;;;7.43;2.88;;;24.90;19.10;;;;;;5031082;28;20045;-58
2023/06/30 09:42:44;;;;;;;9.52;3.90;;;24.60;1.20;;;;;;5030660;28;20533;-58
2023/06/30 09:45:13;;;;;;;6.00;2.97;;;24.40;1.00;;;;;;5011625;28;20053;-58
2023/06/30 09:47:39;;;;;;;7.28;2.75;;;24.30;3.20;;;;;;5018618;28;20041;-57
2023/06/30 09:50:05;;;;;;;6.70;2.83;;;24.10;4.80;;;;;;5030849;28;20041;-58
2023/06/30 09:52:32;;;;;;;7.22;2.88;;;23.90;8.60;;;;;;5030373;28;20048;-58
2023/06/30 09:54:58;;;;;;;6.90;3.15;;;23.70;13.10;;;;;;5032670;28;20538;-58
2023/06/30 09:57:27;;;;;;;8.75;3.60;;;24.30;34.60;;;;;;5030630;28;20029;-58
2023/06/30 09:59:53;;;;;;;10.23;2.80;;;24.20;49.20;;;;;;5030520;28;20033;-58
2023/06/30 10:02:18;;;;;;;7.78;3.03;;;24.20;38.50;;;;;;5022849;28;20494;-58
2023/06/30 10:04:44;;;;;;;4.20;2.75;;;24.40;32.70;;;;;;5028377;28;20029;-58
2023/06/30 10:07:13;;;;;;;5.18;2.67;;;24.00;32.70;;;;;;5029052;28;20045;-58
2023/06/30 10:09:42;;;;;;;4.85;2.58;;;24.00;34.40;;;;;;5019256;28;20068;-57
2023/06/30 10:12:09;;;;;;;9.88;3.30;;;24.00;51.30;;;;;;5028395;28;20037;-57
2023/06/30 10:14:36;;;;;;;7.53;4.13;;;23.80;30.00;;;;;;5030446;28;20085;-57
2023/06/30 10:17:03;;;;;;;8.27;3.38;;;23.70;50.80;;;;;;5030352;28;20037;-58
2023/06/30 10:19:29;;;;;;;7.32;2.40;;;23.80;72.70;;;;;;5030430;28;20199;-57
2023/06/30 10:21:56;;;;;;;8.57;2.20;;;24.00;60.50;;;;;;5030521;28;20072;-57
2023/06/30 10:24:37;;;;;;;8.05;2.60;;;23.90;55.50;;;;;;5011503;28;20053;-57
2023/06/30 10:27:04;;;;;;;7.78;2.50;;;24.10;48.70;;;;;;5011286;28;20499;-57
2023/06/30 10:29:30;;;;;;;7.03;2.40;;;24.20;40.90;;;;;;5030482;28;20517;-57
2023/06/30 10:31:56;;;;;;;9.18;2.35;;;24.30;34.70;;;;;;5029807;28;20045;-57
2023/06/30 10:34:21;;;;;;;15.73;2.53;;;24.40;48.20;;;;;;5030396;28;20513;-57
2023/06/30 10:36:48;;;;;;;18.63;3.08;;;24.30;17.30;;;;;;5030119;28;20033;-57
2023/06/30 10:39:15;;;;;;;8.82;2.55;;;24.30;16.70;;;;;;5030152;28;20110;-58
2023/06/30 10:41:46;;;;;;;9.57;2.55;;;24.40;16.80;;;;;;5045452;28;20514;-58
2023/06/30 10:44:12;;;;;;;9.93;2.50;;;24.40;24.00;;;;;;5029812;28;20053;-57
2023/06/30 10:46:46;;;;;;;11.68;2.40;;;24.40;18.10;;;;;;5029928;28;20040;-58
2023/06/30 10:49:31;;;;;;;4.95;2.30;;;24.40;4.90;;;;;;5029997;28;20044;-58
2023/06/30 10:52:01;;;;;;;6.65;2.20;;;24.40;2.90;;;;;;5027673;28;20072;-58
2023/06/30 10:54:37;;;;;;;6.40;1.90;;;24.50;1.00;;;;;;5029637;28;20069;-57
2023/06/30 10:57:09;;;;;;;9.50;2.05;;;24.40;1.00;;;;;;5029492;28;20107;-57
2023/06/30 10:59:38;;;;;;;4.65;2.08;;;24.30;1.00;;;;;;5014513;28;20041;-58
2023/06/30 11:02:13;;;;;;;8.27;2.17;;;24.40;1.00;;;;;;5028468;28;20041;-57
2023/06/30 11:04:43;;;;;;;5.63;2.33;;;24.40;1.00;;;;;;5024682;28;20045;-58
2023/06/30 11:07:10;;;;;;;4.45;2.25;;;24.40;1.00;;;;;;5013823;28;20519;-58
2023/06/30 11:09:48;;;;;;;5.75;2.00;;;24.40;1.00;;;;;;5024892;28;20614;-57
2023/06/30 11:12:23;;;;;;;4.47;1.88;;;24.40;1.00;;;;;;5030518;28;20037;-58
2023/06/30 11:14:59;;;;;;;7.78;2.20;;;24.40;1.00;;;;;;5011583;28;20119;-57
2023/06/30 11:17:27;;;;;;;7.50;2.13;;;24.60;1.00;;;;;;5011419;28;20060;-58
2023/06/30 11:20:02;;;;;;;7.22;1.85;;;24.60;1.00;;;;;;5028131;28;20071;-57
2023/06/30 11:22:31;;;;;;;7.72;2.20;;;24.70;1.00;;;;;;5028390;28;20042;-57
2023/06/30 11:24:56;;;;;;;7.88;2.20;;;24.70;1.00;;;;;;5020048;28;20033;-58
2023/06/30 11:27:22;;;;;;;5.90;2.20;;;24.50;1.00;;;;;;5011490;28;20046;-57
2023/06/30 11:29:50;;;;;;;7.65;2.30;;;24.40;1.00;;;;;;5029047;28;20094;-57
2023/06/30 11:32:26;;;;;;;7.13;2.15;;;24.20;1.00;;;;;;5029430;28;20395;-57
2023/06/30 11:34:52;;;;;;;5.15;2.15;;;24.30;1.00;;;;;;5028027;28;20042;-57
2023/06/30 11:37:18;;;;;;;6.45;2.20;;;24.40;1.00;;;;;;5024503;28;20388;-57
2023/06/30 11:39:50;;;;;;;6.13;2.20;;;24.60;1.00;;;;;;5013896;28;20033;-57
2023/06/30 11:42:16;;;;;;;6.15;2.20;;;24.60;1.00;;;;;;5008702;28;20112;-57
2023/06/30 11:44:42;;;;;;;5.78;2.03;;;24.70;1.00;;;;;;5024854;28;20480;-57
2023/06/30 11:47:07;;;;;;;5.93;2.30;;;24.50;1.00;;;;;;5012285;28;20052;-57
2023/06/30 11:49:39;;;;;;;6.40;2.20;;;24.60;1.00;;;;;;5013650;28;20120;-57
2023/06/30 11:52:05;;;;;;;5.15;1.88;;;24.70;1.00;;;;;;5029033;28;20040;-57
2023/06/30 11:54:35;;;;;;;6.20;1.88;;;24.70;1.00;;;;;;5032898;28;20407;-57
2023/06/30 11:57:02;;;;;;;3.47;1.92;;;24.60;1.00;;;;;;5032951;28;20127;-57
2023/06/30 11:59:28;;;;;;;6.22;2.00;;;24.40;1.00;;;;;;5032895;28;20136;-57
2023/06/30 12:01:53;;;;;;;7.88;2.38;;;24.20;1.00;;;;;;5032629;28;20124;-58
2023/06/30 12:04:22;;;;;;;5.60;2.20;;;24.20;1.00;;;;;;5031759;28;20518;-57
2023/06/30 12:06:54;;;;;;;6.03;2.38;;;24.00;1.00;;;;;;5052715;28;20119;-57
2023/06/30 12:09:20;;;;;;;4.35;1.88;;;24.10;1.00;;;;;;5045854;28;20428;-57
2023/06/30 12:11:46;;;;;;;3.67;2.08;;;24.20;1.00;;;;;;5012463;28;20053;-57
2023/06/30 12:14:14;;;;;;;5.50;2.42;;;24.40;1.00;;;;;;5024150;28;20084;-57
2023/06/30 12:16:45;;;;;;;9.75;2.30;;;24.40;1.00;;;;;;5031168;28;20145;-57
2023/06/30 12:19:12;;;;;;;3.55;1.95;;;24.50;1.00;;;;;;5030183;28;20034;-57
2023/06/30 12:22:12;;;;;;;6.93;2.47;;;24.30;1.00;;;;;;5032472;28;20037;-57
2023/06/30 12:24:39;;;;;;;4.45;2.10;;;24.40;1.00;;;;;;5022826;28;20058;-57
2023/06/30 12:27:06;;;;;;;7.22;2.40;;;24.40;1.00;;;;;;5012516;28;20113;-57
2023/06/30 12:29:33;;;;;;;7.18;2.35;;;24.40;1.00;;;;;;5012680;28;20034;-57
2023/06/30 12:31:59;;;;;;;9.82;2.70;;;24.30;1.00;;;;;;5027111;28;20407;-57
2023/06/30 12:34:32;;;;;;;6.88;2.83;;;23.90;1.00;;;;;;5050685;28;20267;-57